sensor_id;sensor_type;location;lat;lon;timestamp;temperature;humidity
46730;DHT22;32476;50.002;11.854;2023-08-06T00:01:29;13.00;99.90
46730;DHT22;32476;50.002;11.854;2023-08-06T00:03:55;13.10;99.90
46730;DHT22;32476;50.002;11.854;2023-08-06T00:06:23;13.10;99.90
46730;DHT22;32476;50.002;11.854;2023-08-06T00:08:49;13.10;99.90
46730;DHT22;32476;50.002;11.854;2023-08-06T00:11:15;13.20;99.90
46730;DHT22;32476;50.002;11.854;2023-08-06T00:13:43;13.10;99.90
46730;DHT22;32476;50.002;11.854;2023-08-06T00:16:12;13.10;99.90
46730;DHT22;32476;50.002;11.854;2023-08-06T00:18:40;13.10;99.90
46730;DHT22;32476;50.002;11.854;2023-08-06T00:21:07;13.10;99.90
46730;DHT22;32476;50.002;11.854;2023-08-06T00:23:33;13.10;99.90
46730;DHT22;32476;50.002;11.854;2023-08-06T00:25:59;13.10;99.90
46730;DHT22;32476;50.002;11.854;2023-08-06T00:28:27;13.20;99.90
46730;DHT22;32476;50.002;11.854;2023-08-06T00:30:54;13.10;99.90
46730;DHT22;32476;50.002;11.854;2023-08-06T00:33:21;13.10;99.90
46730;DHT22;32476;50.002;11.854;2023-08-06T00:35:49;13.10;99.90
46730;DHT22;32476;50.002;11.854;2023-08-06T00:38:15;13.10;99.90
46730;DHT22;32476;50.002;11.854;2023-08-06T00:40:41;13.30;99.90
46730;DHT22;32476;50.002;11.854;2023-08-06T00:43:09;13.30;99.90
46730;DHT22;32476;50.002;11.854;2023-08-06T00:45:36;13.40;99.90
46730;DHT22;32476;50.002;11.854;2023-08-06T00:48:04;13.40;99.90
46730;DHT22;32476;50.002;11.854;2023-08-06T00:50:32;13.10;99.90
46730;DHT22;32476;50.002;11.854;2023-08-06T00:52:59;13.10;99.90
46730;DHT22;32476;50.002;11.854;2023-08-06T00:55:25;12.90;99.90
46730;DHT22;32476;50.002;11.854;2023-08-06T00:57:54;12.80;99.90
46730;DHT22;32476;50.002;11.854;2023-08-06T01:00:22;12.70;99.90
46730;DHT22;32476;50.002;11.854;2023-08-06T01:02:48;12.60;99.90
46730;DHT22;32476;50.002;11.854;2023-08-06T01:05:16;12.60;99.90
46730;DHT22;32476;50.002;11.854;2023-08-06T01:11:08;12.30;99.90
46730;DHT22;32476;50.002;11.854;2023-08-06T01:14:08;12.30;99.90
46730;DHT22;32476;50.002;11.854;2023-08-06T01:16:40;12.30;99.90
46730;DHT22;32476;50.002;11.854;2023-08-06T01:19:18;12.30;99.90
46730;DHT22;32476;50.002;11.854;2023-08-06T01:21:46;12.30;99.90
46730;DHT22;32476;50.002;11.854;2023-08-06T01:24:12;12.30;99.90
46730;DHT22;32476;50.002;11.854;2023-08-06T01:27:11;12.20;99.90
46730;DHT22;32476;50.002;11.854;2023-08-06T01:30:02;12.30;99.90
46730;DHT22;32476;50.002;11.854;2023-08-06T01:32:34;12.30;99.90
46730;DHT22;32476;50.002;11.854;2023-08-06T01:35:04;12.30;99.90
46730;DHT22;32476;50.002;11.854;2023-08-06T01:37:31;12.30;99.90
46730;DHT22;32476;50.002;11.854;2023-08-06T01:39:57;12.20;99.90
46730;DHT22;32476;50.002;11.854;2023-08-06T01:42:25;12.30;99.90
46730;DHT22;32476;50.002;11.854;2023-08-06T01:44:51;12.30;99.90
46730;DHT22;32476;50.002;11.854;2023-08-06T01:47:16;12.30;99.90
46730;DHT22;32476;50.002;11.854;2023-08-06T01:49:44;12.30;99.90
46730;DHT22;32476;50.002;11.854;2023-08-06T01:52:10;12.30;99.90
46730;DHT22;32476;50.002;11.854;2023-08-06T01:54:36;12.30;99.90
46730;DHT22;32476;50.002;11.854;2023-08-06T01:57:03;12.30;99.90
46730;DHT22;32476;50.002;11.854;2023-08-06T01:59:30;12.30;99.90
46730;DHT22;32476;50.002;11.854;2023-08-06T02:01:56;12.30;99.90
46730;DHT22;32476;50.002;11.854;2023-08-06T02:04:23;12.30;99.90
46730;DHT22;32476;50.002;11.854;2023-08-06T02:06:49;12.30;99.90
46730;DHT22;32476;50.002;11.854;2023-08-06T02:09:15;12.30;99.90
46730;DHT22;32476;50.002;11.854;2023-08-06T02:11:42;12.30;99.90
46730;DHT22;32476;50.002;11.854;2023-08-06T02:14:08;12.20;99.90
46730;DHT22;32476;50.002;11.854;2023-08-06T02:16:34;12.20;99.90
46730;DHT22;32476;50.002;11.854;2023-08-06T02:19:02;12.30;99.90
46730;DHT22;32476;50.002;11.854;2023-08-06T02:21:28;12.30;99.90
46730;DHT22;32476;50.002;11.854;2023-08-06T02:23:54;12.20;99.90
46730;DHT22;32476;50.002;11.854;2023-08-06T02:26:21;12.20;99.90
46730;DHT22;32476;50.002;11.854;2023-08-06T02:28:47;12.30;99.90
46730;DHT22;32476;50.002;11.854;2023-08-06T02:31:13;12.20;99.90
46730;DHT22;32476;50.002;11.854;2023-08-06T02:33:41;12.20;99.90
46730;DHT22;32476;50.002;11.854;2023-08-06T02:36:07;12.20;99.90
46730;DHT22;32476;50.002;11.854;2023-08-06T02:38:33;12.30;99.90
46730;DHT22;32476;50.002;11.854;2023-08-06T02:41:03;12.30;99.90
46730;DHT22;32476;50.002;11.854;2023-08-06T02:43:29;12.30;99.90
46730;DHT22;32476;50.002;11.854;2023-08-06T02:45:59;12.30;99.90
46730;DHT22;32476;50.002;11.854;2023-08-06T02:48:27;12.30;99.90
46730;DHT22;32476;50.002;11.854;2023-08-06T02:50:56;12.40;99.90
46730;DHT22;32476;50.002;11.854;2023-08-06T02:53:22;12.40;99.90
46730;DHT22;32476;50.002;11.854;2023-08-06T02:55:50;12.40;99.90
46730;DHT22;32476;50.002;11.854;2023-08-06T02:58:16;12.40;99.90
46730;DHT22;32476;50.002;11.854;2023-08-06T03:00:46;12.40;99.90
46730;DHT22;32476;50.002;11.854;2023-08-06T03:03:13;12.40;99.90
46730;DHT22;32476;50.002;11.854;2023-08-06T03:05:39;12.40;99.90
46730;DHT22;32476;50.002;11.854;2023-08-06T03:08:05;12.40;99.90
46730;DHT22;32476;50.002;11.854;2023-08-06T03:10:32;12.40;99.90
46730;DHT22;32476;50.002;11.854;2023-08-06T03:12:58;12.40;99.90
46730;DHT22;32476;50.002;11.854;2023-08-06T03:15:25;12.30;99.90
46730;DHT22;32476;50.002;11.854;2023-08-06T03:17:55;12.30;99.90
46730;DHT22;32476;50.002;11.854;2023-08-06T03:20:21;12.20;99.90
46730;DHT22;32476;50.002;11.854;2023-08-06T03:22:47;12.20;99.90
46730;DHT22;32476;50.002;11.854;2023-08-06T03:25:15;12.20;99.90
46730;DHT22;32476;50.002;11.854;2023-08-06T03:27:41;12.20;99.90
46730;DHT22;32476;50.002;11.854;2023-08-06T03:30:07;12.10;99.90
46730;DHT22;32476;50.002;11.854;2023-08-06T03:32:35;12.10;99.90
46730;DHT22;32476;50.002;11.854;2023-08-06T03:35:01;12.10;99.90
46730;DHT22;32476;50.002;11.854;2023-08-06T03:37:27;12.10;99.90
46730;DHT22;32476;50.002;11.854;2023-08-06T03:39:54;12.10;99.90
46730;DHT22;32476;50.002;11.854;2023-08-06T03:42:20;12.10;99.90
46730;DHT22;32476;50.002;11.854;2023-08-06T03:44:46;12.00;99.90
46730;DHT22;32476;50.002;11.854;2023-08-06T03:47:14;12.00;99.90
46730;DHT22;32476;50.002;11.854;2023-08-06T03:49:40;12.00;99.90
46730;DHT22;32476;50.002;11.854;2023-08-06T03:52:06;11.90;99.90
46730;DHT22;32476;50.002;11.854;2023-08-06T03:54:34;11.90;99.90
46730;DHT22;32476;50.002;11.854;2023-08-06T03:57:00;11.90;99.90
46730;DHT22;32476;50.002;11.854;2023-08-06T03:59:26;11.80;99.90
46730;DHT22;32476;50.002;11.854;2023-08-06T04:01:54;11.80;99.90
46730;DHT22;32476;50.002;11.854;2023-08-06T04:04:20;11.80;99.90
46730;DHT22;32476;50.002;11.854;2023-08-06T04:06:46;11.70;99.90
46730;DHT22;32476;50.002;11.854;2023-08-06T04:09:13;11.70;99.90
46730;DHT22;32476;50.002;11.854;2023-08-06T04:11:39;11.80;99.90
46730;DHT22;32476;50.002;11.854;2023-08-06T04:14:05;11.70;99.90
46730;DHT22;32476;50.002;11.854;2023-08-06T04:16:32;11.70;99.90
46730;DHT22;32476;50.002;11.854;2023-08-06T04:18:59;11.70;99.90
46730;DHT22;32476;50.002;11.854;2023-08-06T04:21:24;11.60;99.90
46730;DHT22;32476;50.002;11.854;2023-08-06T04:23:52;11.70;99.90
46730;DHT22;32476;50.002;11.854;2023-08-06T04:26:18;11.60;99.90
46730;DHT22;32476;50.002;11.854;2023-08-06T04:28:44;11.60;99.90
46730;DHT22;32476;50.002;11.854;2023-08-06T04:31:11;11.60;99.90
46730;DHT22;32476;50.002;11.854;2023-08-06T04:33:37;11.60;99.90
46730;DHT22;32476;50.002;11.854;2023-08-06T04:36:03;11.60;99.90
46730;DHT22;32476;50.002;11.854;2023-08-06T04:38:31;11.50;99.90
46730;DHT22;32476;50.002;11.854;2023-08-06T04:40:57;11.50;99.90
46730;DHT22;32476;50.002;11.854;2023-08-06T04:43:24;11.50;99.90
46730;DHT22;32476;50.002;11.854;2023-08-06T04:45:55;11.50;99.90
46730;DHT22;32476;50.002;11.854;2023-08-06T04:48:22;11.50;99.90
46730;DHT22;32476;50.002;11.854;2023-08-06T04:50:50;11.50;99.90
46730;DHT22;32476;50.002;11.854;2023-08-06T04:53:17;11.50;99.90
46730;DHT22;32476;50.002;11.854;2023-08-06T04:55:43;11.50;99.90
46730;DHT22;32476;50.002;11.854;2023-08-06T04:58:10;11.50;99.90
46730;DHT22;32476;50.002;11.854;2023-08-06T05:00:37;11.50;99.90
46730;DHT22;32476;50.002;11.854;2023-08-06T05:03:06;11.50;99.90
46730;DHT22;32476;50.002;11.854;2023-08-06T05:05:32;11.50;99.90
46730;DHT22;32476;50.002;11.854;2023-08-06T05:07:59;11.50;99.90
46730;DHT22;32476;50.002;11.854;2023-08-06T05:10:25;11.60;99.90
46730;DHT22;32476;50.002;11.854;2023-08-06T05:12:51;11.60;99.90
46730;DHT22;32476;50.002;11.854;2023-08-06T05:15:19;11.60;99.90
46730;DHT22;32476;50.002;11.854;2023-08-06T05:17:45;11.60;99.90
46730;DHT22;32476;50.002;11.854;2023-08-06T05:20:11;11.60;99.90
46730;DHT22;32476;50.002;11.854;2023-08-06T05:22:38;11.60;99.90
46730;DHT22;32476;50.002;11.854;2023-08-06T05:25:05;11.70;99.90
46730;DHT22;32476;50.002;11.854;2023-08-06T05:27:32;11.70;99.90
46730;DHT22;32476;50.002;11.854;2023-08-06T05:29:59;11.70;99.90
46730;DHT22;32476;50.002;11.854;2023-08-06T05:32:25;11.70;99.90
46730;DHT22;32476;50.002;11.854;2023-08-06T05:34:51;11.80;99.90
46730;DHT22;32476;50.002;11.854;2023-08-06T05:37:18;11.80;99.90
46730;DHT22;32476;50.002;11.854;2023-08-06T05:39:44;11.80;99.90
46730;DHT22;32476;50.002;11.854;2023-08-06T05:42:10;11.80;99.90
46730;DHT22;32476;50.002;11.854;2023-08-06T05:44:37;11.80;99.90
46730;DHT22;32476;50.002;11.854;2023-08-06T05:47:04;11.80;99.90
46730;DHT22;32476;50.002;11.854;2023-08-06T05:49:29;11.80;99.90
46730;DHT22;32476;50.002;11.854;2023-08-06T05:51:57;11.80;99.90
46730;DHT22;32476;50.002;11.854;2023-08-06T05:54:23;11.80;99.90
46730;DHT22;32476;50.002;11.854;2023-08-06T05:56:49;11.70;99.90
46730;DHT22;32476;50.002;11.854;2023-08-06T05:59:16;11.70;99.90
46730;DHT22;32476;50.002;11.854;2023-08-06T06:01:42;11.70;99.90
46730;DHT22;32476;50.002;11.854;2023-08-06T06:04:08;11.80;99.90
46730;DHT22;32476;50.002;11.854;2023-08-06T06:06:35;11.80;99.90
46730;DHT22;32476;50.002;11.854;2023-08-06T06:09:01;11.90;99.90
46730;DHT22;32476;50.002;11.854;2023-08-06T06:11:28;12.00;99.90
46730;DHT22;32476;50.002;11.854;2023-08-06T06:13:55;12.00;99.90
46730;DHT22;32476;50.002;11.854;2023-08-06T06:16:21;12.10;99.90
46730;DHT22;32476;50.002;11.854;2023-08-06T06:18:47;12.10;99.90
46730;DHT22;32476;50.002;11.854;2023-08-06T06:21:14;12.20;99.90
46730;DHT22;32476;50.002;11.854;2023-08-06T06:23:40;12.30;99.90
46730;DHT22;32476;50.002;11.854;2023-08-06T06:26:06;12.40;99.90
46730;DHT22;32476;50.002;11.854;2023-08-06T06:28:34;12.40;99.90
46730;DHT22;32476;50.002;11.854;2023-08-06T06:31:00;12.40;99.90
46730;DHT22;32476;50.002;11.854;2023-08-06T06:33:27;12.30;99.90
46730;DHT22;32476;50.002;11.854;2023-08-06T06:35:54;12.40;99.90
46730;DHT22;32476;50.002;11.854;2023-08-06T06:38:20;12.50;99.90
46730;DHT22;32476;50.002;11.854;2023-08-06T06:41:04;12.40;99.90
46730;DHT22;32476;50.002;11.854;2023-08-06T06:43:32;12.40;99.90
46730;DHT22;32476;50.002;11.854;2023-08-06T06:45:59;12.50;99.90
46730;DHT22;32476;50.002;11.854;2023-08-06T06:48:29;12.50;99.90
46730;DHT22;32476;50.002;11.854;2023-08-06T06:50:58;12.50;99.90
46730;DHT22;32476;50.002;11.854;2023-08-06T06:53:25;12.60;99.90
46730;DHT22;32476;50.002;11.854;2023-08-06T06:55:55;12.60;99.90
46730;DHT22;32476;50.002;11.854;2023-08-06T06:58:22;12.60;99.90
46730;DHT22;32476;50.002;11.854;2023-08-06T07:00:48;12.70;99.90
46730;DHT22;32476;50.002;11.854;2023-08-06T07:03:15;12.60;99.90
46730;DHT22;32476;50.002;11.854;2023-08-06T07:05:43;12.80;99.90
46730;DHT22;32476;50.002;11.854;2023-08-06T07:08:10;12.90;99.90
46730;DHT22;32476;50.002;11.854;2023-08-06T07:10:36;13.10;99.90
46730;DHT22;32476;50.002;11.854;2023-08-06T07:13:03;13.10;99.90
46730;DHT22;32476;50.002;11.854;2023-08-06T07:15:29;13.20;99.90
46730;DHT22;32476;50.002;11.854;2023-08-06T07:17:55;13.40;99.90
46730;DHT22;32476;50.002;11.854;2023-08-06T07:20:23;13.50;99.90
46730;DHT22;32476;50.002;11.854;2023-08-06T07:22:49;13.40;99.90
46730;DHT22;32476;50.002;11.854;2023-08-06T07:25:16;13.50;99.90
46730;DHT22;32476;50.002;11.854;2023-08-06T07:27:44;13.50;99.90
46730;DHT22;32476;50.002;11.854;2023-08-06T07:30:10;13.50;99.90
46730;DHT22;32476;50.002;11.854;2023-08-06T07:32:36;13.60;99.90
46730;DHT22;32476;50.002;11.854;2023-08-06T07:35:04;13.50;99.90
46730;DHT22;32476;50.002;11.854;2023-08-06T07:37:31;13.50;99.90
46730;DHT22;32476;50.002;11.854;2023-08-06T07:39:57;13.50;99.90
46730;DHT22;32476;50.002;11.854;2023-08-06T07:42:24;13.50;99.90
46730;DHT22;32476;50.002;11.854;2023-08-06T07:44:54;13.60;99.90
46730;DHT22;32476;50.002;11.854;2023-08-06T07:47:22;13.70;99.90
46730;DHT22;32476;50.002;11.854;2023-08-06T07:49:50;13.60;99.90
46730;DHT22;32476;50.002;11.854;2023-08-06T07:52:16;13.60;99.90
46730;DHT22;32476;50.002;11.854;2023-08-06T07:54:42;13.60;99.90
46730;DHT22;32476;50.002;11.854;2023-08-06T07:57:09;13.80;99.90
46730;DHT22;32476;50.002;11.854;2023-08-06T07:59:35;13.60;99.90
46730;DHT22;32476;50.002;11.854;2023-08-06T08:02:01;13.80;99.90
46730;DHT22;32476;50.002;11.854;2023-08-06T08:04:29;13.70;99.90
46730;DHT22;32476;50.002;11.854;2023-08-06T08:06:55;13.60;99.90
46730;DHT22;32476;50.002;11.854;2023-08-06T08:09:21;13.60;99.90
46730;DHT22;32476;50.002;11.854;2023-08-06T08:11:48;14.00;99.90
46730;DHT22;32476;50.002;11.854;2023-08-06T08:14:16;14.10;99.90
46730;DHT22;32476;50.002;11.854;2023-08-06T08:16:42;14.50;99.90
46730;DHT22;32476;50.002;11.854;2023-08-06T08:19:09;14.90;99.90
46730;DHT22;32476;50.002;11.854;2023-08-06T08:21:35;14.70;99.90
46730;DHT22;32476;50.002;11.854;2023-08-06T08:24:01;14.60;99.90
46730;DHT22;32476;50.002;11.854;2023-08-06T08:26:30;14.40;99.90
46730;DHT22;32476;50.002;11.854;2023-08-06T08:28:57;14.50;99.90
46730;DHT22;32476;50.002;11.854;2023-08-06T08:31:22;14.20;99.90
46730;DHT22;32476;50.002;11.854;2023-08-06T08:33:50;14.50;99.90
46730;DHT22;32476;50.002;11.854;2023-08-06T08:36:16;15.10;99.90
46730;DHT22;32476;50.002;11.854;2023-08-06T08:38:42;15.20;99.90
46730;DHT22;32476;50.002;11.854;2023-08-06T08:41:10;15.00;99.90
46730;DHT22;32476;50.002;11.854;2023-08-06T08:43:36;15.40;99.90
46730;DHT22;32476;50.002;11.854;2023-08-06T08:46:04;15.40;99.90
46730;DHT22;32476;50.002;11.854;2023-08-06T08:48:32;15.40;99.90
46730;DHT22;32476;50.002;11.854;2023-08-06T08:50:59;15.50;99.90
46730;DHT22;32476;50.002;11.854;2023-08-06T08:53:26;15.60;99.90
46730;DHT22;32476;50.002;11.854;2023-08-06T08:55:55;16.00;99.90
46730;DHT22;32476;50.002;11.854;2023-08-06T08:58:21;16.20;99.90
46730;DHT22;32476;50.002;11.854;2023-08-06T09:00:47;16.10;99.90
46730;DHT22;32476;50.002;11.854;2023-08-06T09:03:18;15.90;99.90
46730;DHT22;32476;50.002;11.854;2023-08-06T09:05:45;15.70;99.90
46730;DHT22;32476;50.002;11.854;2023-08-06T09:08:19;15.90;99.90
46730;DHT22;32476;50.002;11.854;2023-08-06T09:10:49;16.20;99.90
46730;DHT22;32476;50.002;11.854;2023-08-06T09:13:17;16.70;99.90
46730;DHT22;32476;50.002;11.854;2023-08-06T09:15:43;16.70;99.90
46730;DHT22;32476;50.002;11.854;2023-08-06T09:18:11;16.30;99.90
46730;DHT22;32476;50.002;11.854;2023-08-06T09:20:39;15.60;99.90
46730;DHT22;32476;50.002;11.854;2023-08-06T09:23:09;15.40;99.90
46730;DHT22;32476;50.002;11.854;2023-08-06T09:25:38;15.10;99.90
46730;DHT22;32476;50.002;11.854;2023-08-06T09:28:09;15.20;99.90
46730;DHT22;32476;50.002;11.854;2023-08-06T09:30:36;15.20;99.90
46730;DHT22;32476;50.002;11.854;2023-08-06T09:33:07;15.10;99.90
46730;DHT22;32476;50.002;11.854;2023-08-06T09:35:37;15.30;99.90
46730;DHT22;32476;50.002;11.854;2023-08-06T09:38:10;15.10;99.90
46730;DHT22;32476;50.002;11.854;2023-08-06T09:40:39;15.50;99.90
46730;DHT22;32476;50.002;11.854;2023-08-06T09:43:05;16.10;99.90
46730;DHT22;32476;50.002;11.854;2023-08-06T09:45:36;16.70;99.90
46730;DHT22;32476;50.002;11.854;2023-08-06T09:48:06;17.20;99.90
46730;DHT22;32476;50.002;11.854;2023-08-06T09:50:35;17.00;99.90
46730;DHT22;32476;50.002;11.854;2023-08-06T09:53:03;16.20;99.90
46730;DHT22;32476;50.002;11.854;2023-08-06T09:55:32;16.40;99.90
46730;DHT22;32476;50.002;11.854;2023-08-06T09:57:59;17.10;99.90
46730;DHT22;32476;50.002;11.854;2023-08-06T10:00:26;17.70;99.90
46730;DHT22;32476;50.002;11.854;2023-08-06T10:02:59;17.00;99.90
46730;DHT22;32476;50.002;11.854;2023-08-06T10:05:26;16.90;99.90
46730;DHT22;32476;50.002;11.854;2023-08-06T10:07:53;16.50;99.90
46730;DHT22;32476;50.002;11.854;2023-08-06T10:10:20;15.80;99.90
46730;DHT22;32476;50.002;11.854;2023-08-06T10:12:50;15.30;99.90
46730;DHT22;32476;50.002;11.854;2023-08-06T10:15:24;14.90;99.90
46730;DHT22;32476;50.002;11.854;2023-08-06T10:17:54;14.90;99.90
46730;DHT22;32476;50.002;11.854;2023-08-06T10:20:22;15.00;99.90
46730;DHT22;32476;50.002;11.854;2023-08-06T10:25:34;14.60;99.90
46730;DHT22;32476;50.002;11.854;2023-08-06T10:28:07;14.40;99.90
46730;DHT22;32476;50.002;11.854;2023-08-06T10:30:46;14.20;99.90
46730;DHT22;32476;50.002;11.854;2023-08-06T10:33:13;13.90;99.90
46730;DHT22;32476;50.002;11.854;2023-08-06T10:35:46;14.00;99.90
46730;DHT22;32476;50.002;11.854;2023-08-06T10:38:16;14.00;99.90
46730;DHT22;32476;50.002;11.854;2023-08-06T10:43:34;13.70;99.90
46730;DHT22;32476;50.002;11.854;2023-08-06T10:46:22;13.20;99.90
46730;DHT22;32476;50.002;11.854;2023-08-06T10:48:57;13.30;99.90
46730;DHT22;32476;50.002;11.854;2023-08-06T10:51:24;13.30;99.90
46730;DHT22;32476;50.002;11.854;2023-08-06T10:53:51;13.60;99.90
46730;DHT22;32476;50.002;11.854;2023-08-06T10:56:18;14.00;99.90
46730;DHT22;32476;50.002;11.854;2023-08-06T10:58:50;14.20;99.90
46730;DHT22;32476;50.002;11.854;2023-08-06T11:01:17;14.20;99.90
46730;DHT22;32476;50.002;11.854;2023-08-06T11:03:45;14.20;99.90
46730;DHT22;32476;50.002;11.854;2023-08-06T11:06:20;14.50;99.90
46730;DHT22;32476;50.002;11.854;2023-08-06T11:08:54;14.60;99.90
46730;DHT22;32476;50.002;11.854;2023-08-06T11:11:23;14.40;99.90
46730;DHT22;32476;50.002;11.854;2023-08-06T11:13:51;14.20;99.90
46730;DHT22;32476;50.002;11.854;2023-08-06T11:16:22;14.20;99.90
46730;DHT22;32476;50.002;11.854;2023-08-06T11:18:52;13.90;99.90
46730;DHT22;32476;50.002;11.854;2023-08-06T11:21:22;14.10;99.90
46730;DHT22;32476;50.002;11.854;2023-08-06T11:23:52;14.10;99.90
46730;DHT22;32476;50.002;11.854;2023-08-06T11:26:20;14.70;99.90
46730;DHT22;32476;50.002;11.854;2023-08-06T11:28:46;14.80;99.90
46730;DHT22;32476;50.002;11.854;2023-08-06T11:31:21;15.00;99.90
46730;DHT22;32476;50.002;11.854;2023-08-06T11:33:50;14.70;99.90
46730;DHT22;32476;50.002;11.854;2023-08-06T11:36:36;14.30;99.90
46730;DHT22;32476;50.002;11.854;2023-08-06T11:39:05;14.40;99.90
46730;DHT22;32476;50.002;11.854;2023-08-06T11:41:32;14.80;99.90
46730;DHT22;32476;50.002;11.854;2023-08-06T11:43:59;15.60;99.90
46730;DHT22;32476;50.002;11.854;2023-08-06T11:46:25;15.80;99.90
46730;DHT22;32476;50.002;11.854;2023-08-06T11:48:57;16.00;99.90
46730;DHT22;32476;50.002;11.854;2023-08-06T11:51:27;16.30;99.90
46730;DHT22;32476;50.002;11.854;2023-08-06T11:53:56;16.20;99.90
46730;DHT22;32476;50.002;11.854;2023-08-06T11:56:23;15.60;99.90
46730;DHT22;32476;50.002;11.854;2023-08-06T11:58:51;15.40;99.90
46730;DHT22;32476;50.002;11.854;2023-08-06T12:01:18;15.60;99.90
46730;DHT22;32476;50.002;11.854;2023-08-06T12:03:44;16.10;99.90
46730;DHT22;32476;50.002;11.854;2023-08-06T12:06:10;15.80;99.90
46730;DHT22;32476;50.002;11.854;2023-08-06T12:08:38;15.50;99.90
46730;DHT22;32476;50.002;11.854;2023-08-06T12:11:04;15.30;99.90
46730;DHT22;32476;50.002;11.854;2023-08-06T12:13:30;15.30;99.90
46730;DHT22;32476;50.002;11.854;2023-08-06T12:15:57;15.50;99.90
46730;DHT22;32476;50.002;11.854;2023-08-06T12:18:23;16.20;99.90
46730;DHT22;32476;50.002;11.854;2023-08-06T12:20:49;15.70;99.90
46730;DHT22;32476;50.002;11.854;2023-08-06T12:23:17;15.30;99.90
46730;DHT22;32476;50.002;11.854;2023-08-06T12:25:43;15.20;99.90
46730;DHT22;32476;50.002;11.854;2023-08-06T12:28:10;15.10;99.90
46730;DHT22;32476;50.002;11.854;2023-08-06T12:30:39;14.80;99.90
46730;DHT22;32476;50.002;11.854;2023-08-06T12:33:08;14.50;99.90
46730;DHT22;32476;50.002;11.854;2023-08-06T12:35:35;14.50;99.90
46730;DHT22;32476;50.002;11.854;2023-08-06T12:38:02;14.40;99.90
46730;DHT22;32476;50.002;11.854;2023-08-06T12:40:28;14.30;99.90
46730;DHT22;32476;50.002;11.854;2023-08-06T12:42:54;14.30;99.90
46730;DHT22;32476;50.002;11.854;2023-08-06T12:45:22;14.10;99.90
46730;DHT22;32476;50.002;11.854;2023-08-06T12:47:48;14.20;99.90
46730;DHT22;32476;50.002;11.854;2023-08-06T12:50:15;14.00;99.90
46730;DHT22;32476;50.002;11.854;2023-08-06T12:52:44;13.90;99.90
46730;DHT22;32476;50.002;11.854;2023-08-06T12:55:10;13.90;99.90
46730;DHT22;32476;50.002;11.854;2023-08-06T12:57:36;14.00;99.90
46730;DHT22;32476;50.002;11.854;2023-08-06T13:00:03;14.40;99.90
46730;DHT22;32476;50.002;11.854;2023-08-06T13:02:30;15.20;99.90
46730;DHT22;32476;50.002;11.854;2023-08-06T13:04:56;15.40;99.90
46730;DHT22;32476;50.002;11.854;2023-08-06T13:07:24;15.60;99.90
46730;DHT22;32476;50.002;11.854;2023-08-06T13:09:51;15.40;99.90
46730;DHT22;32476;50.002;11.854;2023-08-06T13:12:17;15.10;99.90
46730;DHT22;32476;50.002;11.854;2023-08-06T13:14:47;15.00;99.90
46730;DHT22;32476;50.002;11.854;2023-08-06T13:17:13;14.60;99.90
46730;DHT22;32476;50.002;11.854;2023-08-06T13:19:39;14.30;99.90
46730;DHT22;32476;50.002;11.854;2023-08-06T13:22:06;14.30;99.90
46730;DHT22;32476;50.002;11.854;2023-08-06T13:24:34;14.30;99.90
46730;DHT22;32476;50.002;11.854;2023-08-06T13:27:01;14.60;99.90
46730;DHT22;32476;50.002;11.854;2023-08-06T13:29:28;15.10;99.90
46730;DHT22;32476;50.002;11.854;2023-08-06T13:31:54;15.40;99.90
46730;DHT22;32476;50.002;11.854;2023-08-06T13:34:23;15.40;99.90
46730;DHT22;32476;50.002;11.854;2023-08-06T13:36:50;15.50;99.90
46730;DHT22;32476;50.002;11.854;2023-08-06T13:39:16;15.70;99.90
46730;DHT22;32476;50.002;11.854;2023-08-06T13:41:43;16.20;99.90
46730;DHT22;32476;50.002;11.854;2023-08-06T13:44:11;16.10;99.90
46730;DHT22;32476;50.002;11.854;2023-08-06T13:46:40;16.30;99.90
46730;DHT22;32476;50.002;11.854;2023-08-06T13:49:06;16.70;99.90
46730;DHT22;32476;50.002;11.854;2023-08-06T13:51:34;16.60;99.90
46730;DHT22;32476;50.002;11.854;2023-08-06T13:54:01;16.80;99.90
46730;DHT22;32476;50.002;11.854;2023-08-06T13:56:27;17.20;99.90
46730;DHT22;32476;50.002;11.854;2023-08-06T13:58:56;16.90;99.90
46730;DHT22;32476;50.002;11.854;2023-08-06T14:01:22;16.20;99.90
46730;DHT22;32476;50.002;11.854;2023-08-06T14:03:48;15.60;99.90
46730;DHT22;32476;50.002;11.854;2023-08-06T14:06:16;15.20;99.90
46730;DHT22;32476;50.002;11.854;2023-08-06T14:08:42;15.10;99.90
46730;DHT22;32476;50.002;11.854;2023-08-06T14:11:08;15.10;99.90
46730;DHT22;32476;50.002;11.854;2023-08-06T14:13:37;15.40;99.90
46730;DHT22;32476;50.002;11.854;2023-08-06T14:16:03;15.90;99.90
46730;DHT22;32476;50.002;11.854;2023-08-06T14:18:29;15.60;99.90
46730;DHT22;32476;50.002;11.854;2023-08-06T14:20:56;15.30;99.90
46730;DHT22;32476;50.002;11.854;2023-08-06T14:23:22;15.50;99.90
46730;DHT22;32476;50.002;11.854;2023-08-06T14:25:49;15.20;99.90
46730;DHT22;32476;50.002;11.854;2023-08-06T14:28:16;14.80;99.90
46730;DHT22;32476;50.002;11.854;2023-08-06T14:30:42;14.50;99.90
46730;DHT22;32476;50.002;11.854;2023-08-06T14:33:08;14.20;99.90
46730;DHT22;32476;50.002;11.854;2023-08-06T14:35:35;14.00;99.90
46730;DHT22;32476;50.002;11.854;2023-08-06T14:38:01;14.00;99.90
46730;DHT22;32476;50.002;11.854;2023-08-06T14:40:27;13.90;99.90
46730;DHT22;32476;50.002;11.854;2023-08-06T14:43:01;13.80;99.90
46730;DHT22;32476;50.002;11.854;2023-08-06T14:45:28;13.80;99.90
46730;DHT22;32476;50.002;11.854;2023-08-06T14:47:54;13.80;99.90
46730;DHT22;32476;50.002;11.854;2023-08-06T14:50:21;13.80;99.90
46730;DHT22;32476;50.002;11.854;2023-08-06T14:52:47;13.70;99.90
46730;DHT22;32476;50.002;11.854;2023-08-06T14:55:26;13.70;99.90
46730;DHT22;32476;50.002;11.854;2023-08-06T14:57:53;13.60;99.90
46730;DHT22;32476;50.002;11.854;2023-08-06T15:00:20;13.70;99.90
46730;DHT22;32476;50.002;11.854;2023-08-06T15:02:46;13.60;99.90
46730;DHT22;32476;50.002;11.854;2023-08-06T15:05:14;13.60;99.90
46730;DHT22;32476;50.002;11.854;2023-08-06T15:07:40;13.40;99.90
46730;DHT22;32476;50.002;11.854;2023-08-06T15:10:07;13.40;99.90
46730;DHT22;32476;50.002;11.854;2023-08-06T15:12:35;13.30;99.90
46730;DHT22;32476;50.002;11.854;2023-08-06T15:15:01;13.30;99.90
46730;DHT22;32476;50.002;11.854;2023-08-06T15:17:27;13.20;99.90
46730;DHT22;32476;50.002;11.854;2023-08-06T15:19:56;13.20;99.90
46730;DHT22;32476;50.002;11.854;2023-08-06T15:22:26;13.10;99.90
46730;DHT22;32476;50.002;11.854;2023-08-06T15:24:52;13.20;99.90
46730;DHT22;32476;50.002;11.854;2023-08-06T15:27:19;13.30;99.90